GMMW

Nador International Airport

Airport
ICAO code
GMMW
IATA Code
NDR
Summary
ICAO Region
AFI
ICAO Territory
Location

Nador, Oriental region

Serving
Nador
Elevation
574 ft
Coordinates
34° 59' 21" N , 3° 1' 40" W
KCC
Metar
GMMW 260100Z VRB01KT CAVOK 08/05 Q1016 NOSIG

Nador International Airport is an airport serving Nador, a city in the Oriental region in Morocco. It is also known as Al Aroui International Airport or Arwi Airport.

Climatology

Dry-summer subtropical ”Mediterranean" climate (Köppen climate classification Csa)

Runways

Designator Length Width Surface Rops
8/26 3000 45 ASP No/No

Airport map

Aerial View

SKYbrary Partners:

Safety knowledge contributed by: